createdAt,value
2023-01-18T00:01:39.708Z,13.13
2023-01-18T00:04:10.276Z,14.63
2023-01-18T00:06:43.151Z,15.03
2023-01-18T00:09:13.896Z,15.80
2023-01-18T00:11:44.022Z,22.70
2023-01-18T00:14:14.160Z,22.10
2023-01-18T00:16:44.366Z,19.80
2023-01-18T00:19:16.757Z,15.10
2023-01-18T00:21:54.174Z,15.87
2023-01-18T00:24:27.572Z,16.07
2023-01-18T00:26:57.929Z,16.33
2023-01-18T00:29:28.185Z,16.40
2023-01-18T00:31:58.777Z,18.20
2023-01-18T00:34:29.300Z,16.03
2023-01-18T00:37:05.152Z,16.27
2023-01-18T00:39:35.288Z,13.57
2023-01-18T00:42:18.025Z,18.93
2023-01-18T00:44:48.274Z,15.20
2023-01-18T00:47:18.319Z,15.60
2023-01-18T00:49:48.757Z,14.23
2023-01-18T00:52:21.937Z,15.30
2023-01-18T00:54:52.498Z,12.70
2023-01-18T00:57:23.061Z,14.77
2023-01-18T00:59:53.280Z,12.43
2023-01-18T01:02:23.519Z,12.30
2023-01-18T01:05:06.452Z,13.83
2023-01-18T01:07:39.315Z,14.23
2023-01-18T01:10:14.182Z,11.57
2023-01-18T01:12:57.244Z,13.97
2023-01-18T01:15:40.413Z,13.50
2023-01-18T01:18:24.157Z,13.03
2023-01-18T01:21:07.795Z,16.43
2023-01-18T01:23:52.902Z,18.07
2023-01-18T01:26:23.075Z,14.17
2023-01-18T01:28:56.228Z,17.07
2023-01-18T01:31:26.547Z,16.37
2023-01-18T01:33:56.636Z,17.17
2023-01-18T01:36:28.515Z,18.83
2023-01-18T01:39:01.386Z,16.47
2023-01-18T01:41:34.960Z,17.60
2023-01-18T01:44:28.720Z,15.07
2023-01-18T01:47:03.159Z,17.37
2023-01-18T01:49:41.138Z,14.67
2023-01-18T01:52:14.925Z,16.50
2023-01-18T01:54:53.835Z,17.30
2023-01-18T01:57:27.623Z,15.60
2023-01-18T02:00:04.174Z,18.40
2023-01-18T02:02:38.142Z,20.50
2023-01-18T02:05:12.256Z,14.63
2023-01-18T02:07:42.918Z,16.00
2023-01-18T02:10:16.370Z,12.10
2023-01-18T02:12:51.550Z,12.03
2023-01-18T02:15:25.339Z,14.00
2023-01-18T02:18:26.844Z,13.90
2023-01-18T02:21:21.362Z,17.20
2023-01-18T02:24:37.699Z,13.43
2023-01-18T02:27:25.832Z,16.30
2023-01-18T02:30:31.344Z,14.67
2023-01-18T02:33:11.475Z,16.33
2023-01-18T02:35:53.669Z,12.70
2023-01-18T02:38:32.695Z,17.07
2023-01-18T02:41:22.769Z,15.67
2023-01-18T02:44:10.726Z,19.90
2023-01-18T02:46:45.232Z,11.20
2023-01-18T02:49:27.752Z,10.63
2023-01-18T02:52:04.615Z,11.43
2023-01-18T02:54:41.151Z,10.70
2023-01-18T02:57:18.420Z,11.60
2023-01-18T02:59:56.897Z,14.37
2023-01-18T03:02:31.315Z,13.20
2023-01-18T03:05:01.890Z,11.33
2023-01-18T03:07:41.538Z,16.67
2023-01-18T03:10:17.544Z,11.60
2023-01-18T03:13:01.415Z,15.97
2023-01-18T03:15:45.342Z,15.23
2023-01-18T03:18:24.747Z,11.53
2023-01-18T03:20:56.515Z,12.83
2023-01-18T03:23:45.808Z,15.27
2023-01-18T03:26:22.083Z,15.23
2023-01-18T03:29:11.067Z,12.40
2023-01-18T03:31:59.765Z,10.93
2023-01-18T03:34:40.853Z,13.43
2023-01-18T03:37:17.433Z,14.17
2023-01-18T03:39:54.200Z,17.53
2023-01-18T03:42:31.384Z,12.57
2023-01-18T03:45:13.375Z,13.60
2023-01-18T03:47:43.653Z,12.87
2023-01-18T03:50:16.798Z,11.60
2023-01-18T03:52:53.814Z,12.93
2023-01-18T03:55:35.282Z,10.47
2023-01-18T03:58:12.414Z,12.23
2023-01-18T04:00:43.882Z,15.87
2023-01-18T04:03:16.129Z,11.03
2023-01-18T04:05:49.220Z,12.27
2023-01-18T04:08:23.061Z,12.27
2023-01-18T04:10:53.306Z,14.70
2023-01-18T04:13:23.358Z,12.20
2023-01-18T04:15:53.605Z,15.40
2023-01-18T04:18:23.727Z,13.13
2023-01-18T04:20:56.602Z,14.50
2023-01-18T04:23:27.042Z,18.43
2023-01-18T04:25:59.847Z,15.50
2023-01-18T04:28:34.542Z,14.53
2023-01-18T04:31:04.776Z,14.73
2023-01-18T04:33:37.261Z,17.53
2023-01-18T04:36:14.264Z,14.03
2023-01-18T04:38:44.278Z,17.80
2023-01-18T04:41:14.830Z,13.63
2023-01-18T04:43:44.861Z,14.47
2023-01-18T04:46:16.299Z,14.53
2023-01-18T04:48:46.841Z,14.20
2023-01-18T04:51:19.540Z,15.43
2023-01-18T04:53:52.718Z,15.37
2023-01-18T04:56:22.963Z,13.27
2023-01-18T04:58:56.184Z,14.17
2023-01-18T05:01:35.308Z,15.17
2023-01-18T05:04:05.598Z,13.13
2023-01-18T05:06:38.461Z,15.03
2023-01-18T05:09:08.536Z,13.80
2023-01-18T05:11:38.743Z,18.00
2023-01-18T05:14:09.021Z,17.53
2023-01-18T05:16:39.411Z,14.93
2023-01-18T05:19:09.593Z,15.30
2023-01-18T05:21:42.341Z,18.83
2023-01-18T05:24:14.593Z,16.10
2023-01-18T05:26:45.513Z,14.83
2023-01-18T05:29:15.570Z,17.20
2023-01-18T05:31:48.558Z,18.37
2023-01-18T05:34:18.896Z,15.77
2023-01-18T05:36:54.178Z,15.73
2023-01-18T05:39:24.244Z,20.57
2023-01-18T05:41:54.626Z,15.23
2023-01-18T05:44:24.710Z,17.60
2023-01-18T05:46:56.111Z,13.70
2023-01-18T05:49:26.229Z,14.60
2023-01-18T05:51:59.576Z,16.13
2023-01-18T05:54:29.618Z,16.70
2023-01-18T05:57:02.801Z,18.50
2023-01-18T05:59:32.870Z,20.40
2023-01-18T06:02:03.066Z,17.53
2023-01-18T06:04:33.225Z,28.63
2023-01-18T06:07:09.418Z,37.60
2023-01-18T06:09:40.126Z,24.40
2023-01-18T06:12:13.247Z,24.03
2023-01-18T06:14:43.308Z,35.03
2023-01-18T06:17:13.423Z,27.80
2023-01-18T06:19:43.539Z,26.63
2023-01-18T06:22:16.369Z,53.80
2023-01-18T06:24:46.514Z,27.23
2023-01-18T06:27:16.626Z,22.90
2023-01-18T06:29:46.692Z,23.93
2023-01-18T06:32:16.824Z,21.30
2023-01-18T06:34:47.062Z,23.17
2023-01-18T06:37:19.989Z,20.13
2023-01-18T06:39:50.319Z,22.27
2023-01-18T06:42:20.650Z,22.73
2023-01-18T06:44:50.692Z,20.83
2023-01-18T06:47:20.832Z,22.60
2023-01-18T06:49:51.068Z,22.90
2023-01-18T06:52:26.218Z,29.43
2023-01-18T06:54:56.497Z,28.27
2023-01-18T06:57:26.727Z,29.03
2023-01-18T06:59:58.416Z,22.13
2023-01-18T07:02:28.517Z,26.30
2023-01-18T07:04:58.589Z,18.33
2023-01-18T07:07:31.825Z,21.20
2023-01-18T07:10:03.953Z,21.40
2023-01-18T07:12:34.205Z,17.23
2023-01-18T07:15:20.388Z,21.13
2023-01-18T07:17:51.472Z,21.77
2023-01-18T07:20:24.861Z,20.93
2023-01-18T07:22:59.503Z,21.07
2023-01-18T07:25:29.992Z,21.40
2023-01-18T07:28:00.502Z,24.37
2023-01-18T07:30:30.644Z,25.23
2023-01-18T07:33:01.227Z,24.23
2023-01-18T07:35:31.737Z,27.27
2023-01-18T07:38:04.485Z,24.80
2023-01-18T07:40:34.799Z,24.40
2023-01-18T07:43:05.454Z,22.93
2023-01-18T07:45:37.546Z,25.30
2023-01-18T07:48:08.225Z,22.97
2023-01-18T07:50:39.596Z,18.47
2023-01-18T07:53:12.260Z,20.07
2023-01-18T07:55:42.697Z,26.43
2023-01-18T07:58:12.860Z,25.83
2023-01-18T08:00:45.840Z,26.27
2023-01-18T08:03:17.273Z,23.97
2023-01-18T08:05:48.774Z,19.90
2023-01-18T08:08:21.750Z,21.30
2023-01-18T08:10:57.356Z,17.20
2023-01-18T08:13:28.701Z,16.97
2023-01-18T08:16:02.504Z,20.30
2023-01-18T08:18:33.302Z,24.00
2023-01-18T08:21:03.588Z,17.10
2023-01-18T08:23:37.453Z,21.07
2023-01-18T08:26:09.625Z,23.90
2023-01-18T08:28:41.550Z,20.83
2023-01-18T08:31:15.395Z,20.53
2023-01-18T08:33:51.066Z,20.43
2023-01-18T08:36:24.717Z,20.63
2023-01-18T08:39:02.489Z,20.50
2023-01-18T08:41:32.675Z,22.77
2023-01-18T08:44:03.121Z,20.23
2023-01-18T08:46:33.330Z,22.00
2023-01-18T08:49:05.785Z,18.33
2023-01-18T08:51:36.146Z,18.93
2023-01-18T08:54:09.284Z,18.03
2023-01-18T08:56:39.362Z,18.77
2023-01-18T08:59:13.987Z,16.33
2023-01-18T09:01:44.181Z,17.13
2023-01-18T09:04:14.467Z,21.83
2023-01-18T09:06:46.391Z,17.27
2023-01-18T09:09:20.504Z,16.73
2023-01-18T09:11:59.201Z,18.20
2023-01-18T09:14:29.345Z,17.73
2023-01-18T09:16:59.391Z,13.83
2023-01-18T09:19:29.479Z,19.73
2023-01-18T09:21:59.537Z,15.30
2023-01-18T09:24:32.531Z,17.10
2023-01-18T09:27:02.638Z,18.20
2023-01-18T09:29:32.779Z,17.40
2023-01-18T09:32:02.925Z,19.30
2023-01-18T09:34:33.084Z,14.73
2023-01-18T09:37:03.492Z,16.47
2023-01-18T09:39:50.781Z,16.93
2023-01-18T09:42:26.288Z,14.17
2023-01-18T09:45:01.164Z,16.07
2023-01-18T09:47:35.155Z,14.87
2023-01-18T09:50:18.745Z,19.63
2023-01-18T09:53:00.812Z,18.73
2023-01-18T09:55:49.176Z,13.77
2023-01-18T09:58:41.760Z,17.27
2023-01-18T10:01:21.747Z,21.90
2023-01-18T10:03:58.051Z,14.68
2023-01-18T10:06:36.587Z,13.77
2023-01-18T10:09:15.724Z,17.10
2023-01-18T10:11:59.753Z,15.15
2023-01-18T10:14:49.571Z,15.85
2023-01-18T10:17:28.643Z,14.35
2023-01-18T10:19:59.443Z,14.10
2023-01-18T10:22:37.289Z,14.07
2023-01-18T10:25:19.210Z,16.17
2023-01-18T10:28:28.146Z,15.03
2023-01-18T10:31:19.965Z,16.40
2023-01-18T10:33:54.482Z,17.43
2023-01-18T10:36:32.934Z,12.67
2023-01-18T10:39:09.673Z,19.10
2023-01-18T10:41:42.427Z,18.83
2023-01-18T10:44:15.270Z,16.80
2023-01-18T10:46:48.889Z,13.73
2023-01-18T10:49:38.794Z,14.97
2023-01-18T10:52:28.896Z,16.10
2023-01-18T10:55:02.458Z,15.97
2023-01-18T10:57:37.633Z,15.73
2023-01-18T11:00:24.128Z,15.00
2023-01-18T11:02:57.784Z,14.37
2023-01-18T11:05:37.788Z,10.60
2023-01-18T11:08:26.090Z,14.02
2023-01-18T11:11:05.655Z,13.23
2023-01-18T11:13:45.847Z,10.77
2023-01-18T11:16:24.597Z,14.13
2023-01-18T11:19:02.786Z,13.23
2023-01-18T11:21:51.416Z,10.87
2023-01-18T11:24:27.611Z,13.27
2023-01-18T11:27:15.563Z,10.67
2023-01-18T11:29:50.121Z,9.53
2023-01-18T11:32:28.711Z,10.57
2023-01-18T11:35:01.616Z,10.17
2023-01-18T11:37:37.185Z,6.77
2023-01-18T11:40:31.831Z,6.30
2023-01-18T11:43:10.301Z,6.83
2023-01-18T11:45:50.514Z,8.43
2023-01-18T11:48:33.007Z,6.80
2023-01-18T11:51:15.599Z,6.00
2023-01-18T11:53:58.593Z,8.10
2023-01-18T11:56:39.976Z,6.40
2023-01-18T11:59:18.670Z,7.70
2023-01-18T12:02:36.967Z,9.03
2023-01-18T12:05:31.503Z,9.80
2023-01-18T12:08:24.810Z,7.30
2023-01-18T12:11:25.573Z,5.40
2023-01-18T12:14:06.290Z,7.73
2023-01-18T12:17:10.671Z,7.10
2023-01-18T12:20:16.333Z,5.17
2023-01-18T12:23:40.818Z,7.10
2023-01-18T12:26:41.266Z,7.23
2023-01-18T12:30:05.236Z,4.43
2023-01-18T12:33:08.077Z,6.00
2023-01-18T12:36:18.878Z,8.00
2023-01-18T12:39:02.065Z,5.57
2023-01-18T12:41:49.960Z,8.07
2023-01-18T12:45:06.360Z,4.67
2023-01-18T12:47:41.801Z,5.70
2023-01-18T12:50:26.907Z,5.80
2023-01-18T12:53:03.637Z,8.07
2023-01-18T12:55:41.300Z,4.97
2023-01-18T12:58:24.223Z,4.87
2023-01-18T13:01:03.057Z,6.90
2023-01-18T13:03:42.292Z,6.67
2023-01-18T13:06:13.625Z,7.37
2023-01-18T13:08:53.226Z,7.43
2023-01-18T13:11:30.267Z,6.03
2023-01-18T13:14:14.301Z,6.00
2023-01-18T13:16:53.381Z,5.60
2023-01-18T13:19:35.164Z,6.20
2023-01-18T13:22:22.270Z,5.50
2023-01-18T13:25:30.769Z,6.20
2023-01-18T13:28:08.316Z,5.47
2023-01-18T13:31:02.550Z,4.77
2023-01-18T13:33:36.142Z,5.63
2023-01-18T13:36:11.645Z,4.40
2023-01-18T13:38:52.718Z,5.70
2023-01-18T13:41:29.367Z,4.60
2023-01-18T13:44:09.393Z,4.83
2023-01-18T13:46:42.481Z,5.07
2023-01-18T13:49:38.813Z,2.97
2023-01-18T13:53:15.530Z,3.43
2023-01-18T13:55:53.666Z,3.60
2023-01-18T13:58:30.076Z,4.87
2023-01-18T14:01:06.052Z,5.47
2023-01-18T14:03:41.927Z,5.63
2023-01-18T14:06:24.750Z,3.27
2023-01-18T14:08:59.976Z,2.00
2023-01-18T14:11:34.469Z,5.37
2023-01-18T14:14:11.303Z,4.53
2023-01-18T14:17:02.712Z,5.10
2023-01-18T14:19:46.585Z,3.97
2023-01-18T14:22:36.606Z,2.83
2023-01-18T14:25:43.288Z,3.53
2023-01-18T14:28:22.104Z,2.83
2023-01-18T14:30:56.848Z,3.67
2023-01-18T14:33:35.345Z,3.60
2023-01-18T14:36:08.669Z,3.47
2023-01-18T14:38:41.200Z,3.17
2023-01-18T14:41:18.036Z,3.67
2023-01-18T14:43:49.713Z,4.40
2023-01-18T14:46:29.154Z,4.87
2023-01-18T14:49:04.425Z,5.80
2023-01-18T14:51:34.656Z,4.17
2023-01-18T14:54:07.095Z,4.17
2023-01-18T14:56:44.824Z,4.43
2023-01-18T14:59:24.018Z,3.97
2023-01-18T15:01:58.152Z,3.67
2023-01-18T15:04:35.416Z,3.33
2023-01-18T15:07:10.610Z,4.20
2023-01-18T15:09:44.366Z,3.50
2023-01-18T15:12:20.062Z,2.43
2023-01-18T15:14:54.731Z,4.10
2023-01-18T15:17:29.080Z,3.40
2023-01-18T15:20:08.169Z,4.33
2023-01-18T15:22:42.607Z,4.63
2023-01-18T15:25:28.958Z,3.63
2023-01-18T15:28:18.581Z,4.53
2023-01-18T15:30:58.079Z,5.80
2023-01-18T15:33:30.733Z,5.93
2023-01-18T15:36:04.711Z,5.47
2023-01-18T15:38:35.724Z,8.83
2023-01-18T15:41:11.465Z,8.60
2023-01-18T15:43:46.032Z,8.57
2023-01-18T15:46:19.904Z,14.90
2023-01-18T15:48:57.294Z,21.27
2023-01-18T15:51:43.913Z,8.50
2023-01-18T15:54:22.383Z,6.60
2023-01-18T15:56:52.788Z,6.80
2023-01-18T15:59:27.307Z,6.30
2023-01-18T16:02:18.633Z,9.37
2023-01-18T16:04:51.889Z,14.17
2023-01-18T16:07:44.241Z,15.03
2023-01-18T16:10:28.167Z,15.67
2023-01-18T16:13:32.694Z,13.57
2023-01-18T16:16:25.708Z,11.63
2023-01-18T16:19:08.628Z,16.30
2023-01-18T16:21:48.025Z,11.03
2023-01-18T16:24:42.245Z,11.50
2023-01-18T16:27:15.836Z,10.50
2023-01-18T16:29:49.450Z,11.40
2023-01-18T16:32:41.221Z,11.90
2023-01-18T16:35:18.490Z,11.23
2023-01-18T16:37:49.871Z,11.90
2023-01-18T16:40:26.479Z,10.43
2023-01-18T16:43:04.875Z,10.23
2023-01-18T16:45:38.902Z,11.60
2023-01-18T16:48:10.460Z,12.10
2023-01-18T16:50:41.745Z,8.77
2023-01-18T16:53:12.032Z,11.90
2023-01-18T16:55:48.341Z,8.60
2023-01-18T16:58:21.567Z,10.47
2023-01-18T17:01:01.809Z,8.27
2023-01-18T17:03:33.503Z,8.97
2023-01-18T17:06:04.858Z,10.20
2023-01-18T17:08:36.318Z,11.20
2023-01-18T17:11:09.068Z,9.70
2023-01-18T17:13:39.628Z,9.97
2023-01-18T17:16:17.458Z,11.30
2023-01-18T17:18:49.845Z,9.70
2023-01-18T17:21:19.930Z,10.27
2023-01-18T17:23:50.106Z,9.43
2023-01-18T17:26:22.807Z,10.67
2023-01-18T17:28:52.884Z,9.73
2023-01-18T17:31:23.609Z,9.47
2023-01-18T17:33:53.709Z,8.57
2023-01-18T17:36:23.816Z,11.13
2023-01-18T17:38:53.857Z,11.23
2023-01-18T17:41:36.162Z,11.57
2023-01-18T17:44:07.187Z,16.60
2023-01-18T17:46:38.317Z,14.23
2023-01-18T17:49:08.465Z,14.27
2023-01-18T17:51:38.608Z,10.90
2023-01-18T17:54:13.390Z,9.20
2023-01-18T17:56:53.320Z,8.70
2023-01-18T17:59:23.590Z,8.93
2023-01-18T18:01:53.719Z,11.33
2023-01-18T18:04:23.840Z,10.23
2023-01-18T18:06:58.341Z,7.83
2023-01-18T18:09:28.733Z,9.80
2023-01-18T18:12:01.627Z,12.47
2023-01-18T18:14:34.436Z,10.33
2023-01-18T18:17:04.809Z,9.67
2023-01-18T18:19:39.810Z,7.07
2023-01-18T18:22:10.168Z,9.03
2023-01-18T18:24:40.365Z,9.53
2023-01-18T18:27:13.203Z,7.77
2023-01-18T18:29:44.193Z,10.00
2023-01-18T18:32:17.193Z,10.70
2023-01-18T18:34:47.618Z,12.67
2023-01-18T18:37:19.820Z,14.60
2023-01-18T18:39:50.505Z,11.33
2023-01-18T18:42:23.181Z,8.93
2023-01-18T18:44:53.402Z,8.47
2023-01-18T18:47:23.517Z,10.50
2023-01-18T18:49:53.784Z,7.13
2023-01-18T18:52:23.992Z,6.70
2023-01-18T18:54:54.298Z,6.90
2023-01-18T18:57:29.018Z,5.37
2023-01-18T18:59:59.155Z,6.77
2023-01-18T19:02:29.386Z,9.20
2023-01-18T19:04:59.554Z,6.80
2023-01-18T19:07:29.699Z,7.63
2023-01-18T19:09:59.815Z,6.20
2023-01-18T19:12:32.465Z,6.57
2023-01-18T19:15:02.764Z,7.23
2023-01-18T19:17:32.870Z,5.87
2023-01-18T19:20:03.280Z,5.10
2023-01-18T19:22:33.416Z,6.20
2023-01-18T19:25:04.241Z,4.73
2023-01-18T19:27:36.973Z,6.93
2023-01-18T19:30:18.721Z,6.87
2023-01-18T19:32:50.929Z,4.00
2023-01-18T19:35:23.176Z,8.10
2023-01-18T19:37:53.302Z,6.67
2023-01-18T19:40:24.377Z,5.10
2023-01-18T19:42:59.526Z,5.23
2023-01-18T19:45:30.901Z,5.50
2023-01-18T19:48:04.106Z,4.93
2023-01-18T19:50:34.321Z,6.53
2023-01-18T19:53:07.267Z,6.20
2023-01-18T19:55:37.463Z,5.50
2023-01-18T19:58:10.170Z,6.07
2023-01-18T20:00:41.307Z,6.37
2023-01-18T20:03:16.034Z,5.07
2023-01-18T20:05:47.213Z,6.13
2023-01-18T20:08:17.253Z,5.30
2023-01-18T20:10:47.330Z,6.03
2023-01-18T20:13:20.011Z,7.53
2023-01-18T20:15:54.057Z,6.27
2023-01-18T20:18:24.116Z,4.80
2023-01-18T20:20:55.985Z,6.10
2023-01-18T20:23:27.070Z,6.90
2023-01-18T20:25:57.341Z,7.30
2023-01-18T20:28:30.367Z,7.27
2023-01-18T20:31:03.102Z,7.13
2023-01-18T20:33:33.231Z,8.50
2023-01-18T20:36:03.698Z,6.30
2023-01-18T20:38:36.627Z,8.70
2023-01-18T20:41:09.154Z,7.77
2023-01-18T20:43:44.061Z,7.47
2023-01-18T20:46:14.464Z,9.90
2023-01-18T20:48:44.569Z,7.00
2023-01-18T20:51:18.020Z,11.10
2023-01-18T20:53:48.290Z,7.63
2023-01-18T20:56:28.700Z,9.93
2023-01-18T20:59:02.017Z,7.63
2023-01-18T21:01:36.707Z,7.83
2023-01-18T21:04:08.045Z,12.53
2023-01-18T21:06:38.230Z,9.90
2023-01-18T21:09:08.281Z,9.27
2023-01-18T21:11:38.413Z,11.70
2023-01-18T21:14:11.707Z,11.70
2023-01-18T21:16:42.101Z,9.60
2023-01-18T21:19:12.878Z,9.37
2023-01-18T21:21:43.035Z,9.13
2023-01-18T21:24:14.414Z,9.57
2023-01-18T21:26:44.568Z,9.00
2023-01-18T21:29:18.211Z,9.90
2023-01-18T21:31:51.328Z,10.97
2023-01-18T21:34:21.699Z,10.80
2023-01-18T21:36:52.482Z,11.73
2023-01-18T21:39:25.191Z,13.33
2023-01-18T21:42:19.813Z,10.60
2023-01-18T21:45:05.215Z,14.73
2023-01-18T21:47:35.297Z,12.63
2023-01-18T21:50:18.751Z,9.20
2023-01-18T21:53:01.517Z,12.53
2023-01-18T21:55:31.617Z,14.40
2023-01-18T21:58:14.213Z,11.03
2023-01-18T22:00:46.968Z,11.17
2023-01-18T22:03:25.893Z,10.53
2023-01-18T22:05:55.979Z,12.27
2023-01-18T22:08:29.109Z,12.90
2023-01-18T22:11:00.349Z,11.93
2023-01-18T22:13:30.575Z,9.67
2023-01-18T22:16:07.097Z,10.07
2023-01-18T22:18:37.218Z,9.73
2023-01-18T22:21:07.592Z,10.27
2023-01-18T22:23:37.700Z,9.67
2023-01-18T22:26:08.205Z,9.20
2023-01-18T22:28:38.327Z,9.03
2023-01-18T22:31:15.597Z,11.77
2023-01-18T22:33:48.375Z,10.57
2023-01-18T22:36:19.350Z,8.57
2023-01-18T22:38:49.468Z,10.40
2023-01-18T22:41:24.083Z,12.70
2023-01-18T22:43:57.333Z,9.20
2023-01-18T22:46:30.171Z,8.60
2023-01-18T22:49:01.414Z,8.47
2023-01-18T22:51:31.579Z,8.97
2023-01-18T22:54:01.728Z,11.60
2023-01-18T22:56:31.881Z,10.63
2023-01-18T22:59:02.869Z,6.80
2023-01-18T23:01:36.302Z,8.60
2023-01-18T23:04:07.563Z,12.50
2023-01-18T23:06:45.569Z,14.60
2023-01-18T23:09:17.422Z,11.77
2023-01-18T23:11:49.033Z,10.60
2023-01-18T23:14:31.688Z,12.13
2023-01-18T23:17:16.808Z,10.93
2023-01-18T23:19:46.963Z,9.70
2023-01-18T23:22:17.024Z,9.30
2023-01-18T23:24:47.224Z,10.13
2023-01-18T23:27:17.338Z,12.93
2023-01-18T23:29:51.595Z,8.93
2023-01-18T23:32:26.489Z,8.70
2023-01-18T23:34:56.970Z,8.97
2023-01-18T23:37:27.951Z,9.47
2023-01-18T23:40:10.572Z,9.93
2023-01-18T23:42:54.762Z,7.30
2023-01-18T23:45:37.498Z,15.80
2023-01-18T23:48:29.555Z,10.17
2023-01-18T23:51:12.198Z,9.87
2023-01-18T23:53:54.739Z,8.07
2023-01-18T23:56:24.976Z,9.20
2023-01-18T23:58:55.059Z,8.40
